Time;durP1;ratioP1;P1;durP2;ratioP2;P2;SDS_P1;SDS_P2;PMS_P1;PMS_P2;Temp;Humidity;BMP_temperature;BMP_pressure;BME280_temperature;BME280_humidity;BME280_pressure;Samples;Min_cycle;Max_cycle;Signal;HPM_P1;HPM_P2
2023/12/19 00:00:28;;;;;;;67.70;31.90;;;;;;;-147.86;100.00;46091.61;105666;1254;61947;-52
2023/12/19 00:02:55;;;;;;;66.80;32.70;;;;;;;-147.86;100.00;46091.62;105707;1254;60265;-53
2023/12/19 00:05:23;;;;;;;70.70;34.00;;;;;;;-147.86;100.00;46092.40;105635;1256;73053;-48
2023/12/19 00:07:49;;;;;;;70.00;32.20;;;;;;;-147.86;100.00;46094.36;105689;1259;64557;-52
2023/12/19 00:10:16;;;;;;;82.60;36.80;;;;;;;-147.86;100.00;46091.62;105652;1254;72720;-49
2023/12/19 00:12:43;;;;;;;79.70;35.10;;;;;;;-147.86;100.00;46092.40;105665;1258;61869;-46
2023/12/19 00:15:11;;;;;;;71.40;35.70;;;;;;;-147.86;100.00;46092.01;105653;1254;60345;-48
2023/12/19 00:17:39;;;;;;;79.40;35.00;;;;;;;-147.86;100.00;46090.83;105734;1257;73142;-48
2023/12/19 00:20:06;;;;;;;76.60;36.30;;;;;;;-147.86;100.00;46093.97;105667;1256;64673;-50
2023/12/19 00:22:34;;;;;;;76.70;37.30;;;;;;;-147.86;100.00;46092.40;105673;1254;72810;-50
2023/12/19 00:25:01;;;;;;;83.20;38.50;;;;;;;-147.86;100.00;46092.01;105653;1258;60919;-50
2023/12/19 00:29:29;;;;;;;83.20;39.20;;;;;;;-147.86;100.00;46085.35;102466;1292;602367;-50
2023/12/19 00:31:55;;;;;;;93.20;40.40;;;;;;;-147.86;100.00;46092.79;105066;1266;59334;-48
2023/12/19 00:34:22;;;;;;;95.30;42.70;;;;;;;-147.86;100.00;46096.32;105087;1267;60176;-54
2023/12/19 00:36:53;;;;;;;92.50;44.00;;;;;;;-147.86;100.00;46093.18;105100;1265;72188;-56
2023/12/19 00:39:20;;;;;;;93.70;42.30;;;;;;;-147.86;100.00;46094.36;105035;1269;64468;-49
2023/12/19 00:41:47;;;;;;;95.10;41.90;;;;;;;-147.86;100.00;46095.14;104909;1264;212004;-53
2023/12/19 00:44:14;;;;;;;94.00;40.00;;;;;;;-147.86;100.00;46093.18;105172;1266;62034;-51
2023/12/19 00:46:43;;;;;;;87.80;40.10;;;;;;;-147.86;100.00;46089.27;105297;1266;59246;-49
2023/12/19 00:49:10;;;;;;;107.70;41.90;;;;;;;-147.86;100.00;46091.62;105198;1263;72257;-56
2023/12/19 00:51:37;;;;;;;94.40;42.00;;;;;;;-147.86;100.00;46093.97;105227;1264;64626;-48
2023/12/19 00:54:04;;;;;;;97.50;41.50;;;;;;;-147.86;100.00;46093.57;105221;1261;72629;-49
2023/12/19 00:56:32;;;;;;;98.00;41.20;;;;;;;-147.86;100.00;46091.62;105252;1265;60947;-52
2023/12/19 00:58:59;;;;;;;100.90;41.00;;;;;;;-147.86;100.00;46090.83;105235;1263;60298;-52
2023/12/19 01:01:26;;;;;;;94.30;40.20;;;;;;;-147.86;100.00;46090.84;105202;1263;72872;-48
2023/12/19 01:03:53;;;;;;;95.20;41.70;;;;;;;-147.86;100.00;46091.23;105216;1265;64653;-51
2023/12/19 01:06:20;;;;;;;99.80;39.00;;;;;;;-147.86;100.00;46094.36;105245;1263;73449;-47
2023/12/19 01:08:47;;;;;;;105.90;41.60;;;;;;;-147.86;100.00;46093.18;105261;1265;61844;-51
2023/12/19 01:11:14;;;;;;;103.90;41.90;;;;;;;-147.86;100.00;46089.27;105227;1261;60325;-49
2023/12/19 01:13:41;;;;;;;101.30;41.30;;;;;;;-147.86;100.00;46091.23;105270;1260;72944;-49
2023/12/19 01:16:09;;;;;;;106.60;44.60;;;;;;;-147.86;100.00;46090.44;105213;1266;64608;-49
2023/12/19 01:18:36;;;;;;;108.70;43.90;;;;;;;-147.86;100.00;46090.83;105202;1266;72656;-46
2023/12/19 01:21:03;;;;;;;115.20;42.40;;;;;;;-147.86;100.00;46093.18;105226;1264;61126;-49
2023/12/19 01:23:30;;;;;;;105.70;41.60;;;;;;;-147.86;100.00;46092.40;105300;1262;60002;-53
2023/12/19 01:25:57;;;;;;;102.40;42.10;;;;;;;-147.86;100.00;46091.23;105164;1265;72992;-52
2023/12/19 01:28:24;;;;;;;104.20;42.10;;;;;;;-147.86;100.00;46090.83;105238;1264;64572;-52
2023/12/19 01:30:51;;;;;;;105.40;40.50;;;;;;;-147.86;100.00;46092.01;105249;1261;72510;-52
2023/12/19 01:33:18;;;;;;;111.90;41.20;;;;;;;-147.86;100.00;46090.05;105184;1264;62041;-48
2023/12/19 01:35:45;;;;;;;116.60;43.70;;;;;;;-147.86;100.00;46092.79;105246;1261;60257;-48
2023/12/19 01:38:13;;;;;;;115.90;42.80;;;;;;;-147.86;100.00;46091.23;105231;1260;72974;-52
2023/12/19 01:40:40;;;;;;;124.10;45.30;;;;;;;-147.86;100.00;46088.48;105226;1264;64993;-49
2023/12/19 01:43:18;;;;;;;115.80;42.10;;;;;;;-147.86;100.00;46090.44;105260;1263;72702;-50
2023/12/19 01:45:45;;;;;;;100.70;40.10;;;;;;;-147.86;100.00;46090.05;105207;1263;62017;-51
2023/12/19 01:48:15;;;;;;;109.00;40.70;;;;;;;-147.86;100.00;46090.05;105199;1261;60131;-51
2023/12/19 01:50:42;;;;;;;112.50;40.80;;;;;;;-147.86;100.00;46092.01;105212;1263;72053;-48
2023/12/19 01:53:09;;;;;;;110.20;39.90;;;;;;;-147.86;100.00;46089.26;105553;1262;65037;-52
2023/12/19 01:55:36;;;;;;;114.90;40.80;;;;;;;-147.86;100.00;46092.40;105542;1257;71565;-50
2023/12/19 01:58:03;;;;;;;112.10;40.50;;;;;;;-147.86;100.00;46091.62;105511;1262;62097;-49
2023/12/19 02:00:31;;;;;;;106.00;41.90;;;;;;;-147.86;100.00;46091.23;105540;1257;60264;-51
2023/12/19 02:02:58;;;;;;;111.30;40.30;;;;;;;-147.86;100.00;46091.62;105574;1260;72045;-53
2023/12/19 02:05:25;;;;;;;102.50;37.90;;;;;;;-147.86;100.00;46090.44;105561;1261;64642;-54
2023/12/19 02:07:52;;;;;;;112.70;40.10;;;;;;;-147.86;100.00;46090.45;105390;1257;72488;-50
2023/12/19 02:10:19;;;;;;;101.30;37.20;;;;;;;-147.86;100.00;46093.58;105544;1262;62147;-50
2023/12/19 02:12:46;;;;;;;114.40;39.80;;;;;;;-147.86;100.00;46089.66;105531;1257;60770;-50
2023/12/19 02:15:13;;;;;;;111.10;39.80;;;;;;;-147.86;100.00;46092.40;105582;1257;73000;-49
2023/12/19 02:17:40;;;;;;;106.50;38.10;;;;;;;-147.86;100.00;46092.40;105536;1262;64753;-52
2023/12/19 02:20:08;;;;;;;111.00;39.00;;;;;;;-147.86;100.00;46090.83;105556;1262;71038;-49
2023/12/19 02:22:35;;;;;;;103.20;36.60;;;;;;;-147.86;100.00;46092.79;105457;1257;61956;-51
2023/12/19 02:25:01;;;;;;;102.20;35.90;;;;;;;-147.86;100.00;46089.26;105144;1257;60246;-51
2023/12/19 02:27:29;;;;;;;97.00;35.50;;;;;;;-147.86;100.00;46089.26;105259;1261;72993;-55
2023/12/19 02:29:55;;;;;;;96.80;34.20;;;;;;;-147.86;100.00;46092.01;105446;1262;64693;-53
2023/12/19 02:32:22;;;;;;;93.60;32.80;;;;;;;-147.86;100.00;46092.01;105554;1257;72393;-51
2023/12/19 02:34:49;;;;;;;88.40;30.50;;;;;;;-147.86;100.00;46091.61;105577;1262;60387;-54
2023/12/19 02:37:16;;;;;;;78.40;30.00;;;;;;;-147.86;100.00;46091.61;105529;1257;60276;-56
2023/12/19 02:39:43;;;;;;;79.60;29.10;;;;;;;-147.86;100.00;46091.62;105583;1262;73045;-52
2023/12/19 02:42:10;;;;;;;77.60;29.10;;;;;;;-147.86;100.00;46092.01;105601;1263;64647;-49
2023/12/19 02:44:37;;;;;;;70.10;29.40;;;;;;;-147.86;100.00;46091.23;105552;1262;72510;-52
2023/12/19 02:47:03;;;;;;;68.30;26.40;;;;;;;-147.86;100.00;46091.22;105627;1262;61937;-55
2023/12/19 02:49:30;;;;;;;67.20;27.00;;;;;;;-147.86;100.00;46090.05;105520;1257;60165;-50
2023/12/19 02:51:58;;;;;;;70.00;27.40;;;;;;;-147.86;100.00;46088.88;105532;1257;72901;-49
2023/12/19 02:54:25;;;;;;;70.40;27.60;;;;;;;-147.86;100.00;46093.58;105584;1262;63669;-52
2023/12/19 02:56:52;;;;;;;65.90;27.00;;;;;;;-147.86;100.00;46090.83;105585;1257;72504;-51
2023/12/19 02:59:19;;;;;;;68.20;28.20;;;;;;;-147.86;100.00;46091.23;105568;1262;62028;-50
2023/12/19 03:01:47;;;;;;;74.70;29.00;;;;;;;-147.86;100.00;46091.23;105632;1257;59790;-51
2023/12/19 03:04:14;;;;;;;84.50;29.90;;;;;;;-147.86;100.00;46091.62;105616;1257;73091;-52
2023/12/19 03:06:41;;;;;;;73.90;27.70;;;;;;;-147.86;100.00;46091.23;105527;1261;64561;-53
2023/12/19 03:09:08;;;;;;;78.90;30.00;;;;;;;-147.86;100.00;46092.40;105530;1257;72752;-53
2023/12/19 03:11:37;;;;;;;77.40;29.80;;;;;;;-147.86;100.00;46090.84;105567;1262;61980;-50
2023/12/19 03:14:04;;;;;;;85.00;30.50;;;;;;;-147.86;100.00;46092.40;105562;1262;59567;-53
2023/12/19 03:16:32;;;;;;;76.50;29.90;;;;;;;-147.86;100.00;46091.62;105567;1263;72744;-55
2023/12/19 03:18:58;;;;;;;76.00;31.30;;;;;;;-147.86;100.00;46090.05;105850;1254;64716;-53
2023/12/19 03:21:26;;;;;;;95.10;32.90;;;;;;;-147.86;100.00;46091.62;105824;1254;72779;-50
2023/12/19 03:23:53;;;;;;;95.70;33.40;;;;;;;-147.86;100.00;46093.97;105855;1254;60324;-52
2023/12/19 03:26:19;;;;;;;105.10;36.10;;;;;;;-147.86;100.00;46091.23;105764;1254;60272;-53
2023/12/19 03:28:47;;;;;;;102.20;35.00;;;;;;;-147.86;100.00;46092.40;105779;1256;73054;-53
2023/12/19 03:31:14;;;;;;;95.20;33.50;;;;;;;-147.86;100.00;46091.23;105847;1258;64564;-52
2023/12/19 03:33:41;;;;;;;94.30;34.10;;;;;;;-147.86;100.00;46091.23;105816;1254;72604;-52
2023/12/19 03:36:08;;;;;;;95.80;32.50;;;;;;;-147.86;100.00;46090.05;105813;1259;61938;-49
2023/12/19 03:38:35;;;;;;;90.30;33.00;;;;;;;-147.86;100.00;46091.23;105880;1259;59990;-51
2023/12/19 03:41:02;;;;;;;93.00;33.20;;;;;;;-147.86;100.00;46092.01;105765;1256;72901;-53
2023/12/19 03:43:29;;;;;;;88.50;32.00;;;;;;;-147.86;100.00;46090.83;105825;1256;64630;-48
2023/12/19 03:46:01;;;;;;;92.90;34.10;;;;;;;-147.86;100.00;46091.23;105798;1254;72598;-52
2023/12/19 03:48:28;;;;;;;93.20;32.50;;;;;;;-147.86;100.00;46090.44;105803;1259;61974;-48
2023/12/19 03:50:55;;;;;;;95.60;33.50;;;;;;;-147.86;100.00;46090.44;105844;1253;59600;-48
2023/12/19 03:53:22;;;;;;;90.60;32.70;;;;;;;-147.86;100.00;46090.45;105814;1256;71915;-52
2023/12/19 03:55:49;;;;;;;105.10;33.50;;;;;;;-147.86;100.00;46090.44;105821;1256;64634;-52
2023/12/19 03:58:16;;;;;;;94.20;33.40;;;;;;;-147.86;100.00;46090.05;105793;1254;72449;-52
2023/12/19 04:00:43;;;;;;;103.10;32.90;;;;;;;-147.86;100.00;46091.23;105794;1259;61953;-52
2023/12/19 04:03:10;;;;;;;97.90;32.60;;;;;;;-147.86;100.00;46092.40;105846;1253;60457;-49
2023/12/19 04:05:36;;;;;;;94.90;31.70;;;;;;;-147.86;100.00;46092.01;105831;1257;71808;-50
2023/12/19 04:08:04;;;;;;;93.30;31.20;;;;;;;-147.86;100.00;46090.44;105839;1259;64633;-48
2023/12/19 04:10:31;;;;;;;85.80;30.00;;;;;;;-147.86;100.00;46090.45;105808;1257;72643;-50
2023/12/19 04:12:58;;;;;;;85.00;30.60;;;;;;;-147.86;100.00;46090.44;105814;1259;60728;-51
2023/12/19 04:15:25;;;;;;;87.50;31.50;;;;;;;-147.86;100.00;46090.83;105700;1254;60185;-49
2023/12/19 04:17:52;;;;;;;97.20;32.50;;;;;;;-147.86;100.00;46093.19;105838;1258;72985;-50
2023/12/19 04:20:19;;;;;;;89.80;31.20;;;;;;;-147.86;100.00;46092.40;105854;1257;63565;-47
2023/12/19 04:22:46;;;;;;;87.60;30.70;;;;;;;-147.86;100.00;46089.66;105822;1254;72536;-52
2023/12/19 04:25:13;;;;;;;88.60;30.80;;;;;;;-147.86;100.00;46090.83;105804;1259;61915;-52
2023/12/19 04:27:40;;;;;;;87.20;30.50;;;;;;;-147.86;100.00;46090.05;105879;1254;60307;-52
2023/12/19 04:30:08;;;;;;;87.10;30.80;;;;;;;-147.86;100.00;46091.23;105871;1258;72987;-54
2023/12/19 04:32:36;;;;;;;94.60;32.90;;;;;;;-147.86;100.00;46089.66;105885;1259;64646;-49
2023/12/19 04:35:04;;;;;;;94.40;31.40;;;;;;;-147.86;100.00;46091.62;105878;1253;72695;-47
2023/12/19 04:37:31;;;;;;;91.40;32.30;;;;;;;-147.86;100.00;46093.19;105804;1257;62047;-47
2023/12/19 04:39:57;;;;;;;95.20;31.70;;;;;;;-147.86;100.00;46091.61;105845;1254;60457;-51
2023/12/19 04:42:24;;;;;;;83.10;30.00;;;;;;;-147.86;100.00;46090.44;105862;1255;73904;-51
2023/12/19 04:44:51;;;;;;;81.50;29.60;;;;;;;-147.86;100.00;46091.22;105843;1259;64547;-50
2023/12/19 04:47:18;;;;;;;83.80;28.40;;;;;;;-147.86;100.00;46092.40;105816;1254;71636;-47
2023/12/19 04:49:45;;;;;;;76.40;26.60;;;;;;;-147.86;100.00;46092.79;105839;1257;61834;-51
2023/12/19 04:52:12;;;;;;;89.10;30.20;;;;;;;-147.86;100.00;46090.44;105880;1254;60546;-50
2023/12/19 04:54:40;;;;;;;78.40;29.60;;;;;;;-147.86;100.00;46089.66;105839;1254;73774;-54
2023/12/19 04:57:07;;;;;;;83.90;29.80;;;;;;;-147.86;100.00;46088.87;105855;1257;65533;-49
2023/12/19 04:59:34;;;;;;;86.90;28.60;;;;;;;-147.86;100.00;46090.44;105815;1254;72629;-45
2023/12/19 05:02:01;;;;;;;77.80;29.40;;;;;;;-147.86;100.00;46090.44;105801;1254;61804;-48
2023/12/19 05:04:28;;;;;;;76.70;27.50;;;;;;;-147.86;100.00;46091.23;105877;1257;60417;-51
2023/12/19 05:06:55;;;;;;;73.10;26.60;;;;;;;-147.86;100.00;46090.45;105869;1257;73550;-49
2023/12/19 05:09:22;;;;;;;72.10;25.20;;;;;;;-147.86;100.00;46090.83;105808;1257;64671;-49
2023/12/19 05:11:49;;;;;;;72.10;24.60;;;;;;;-147.86;100.00;46092.01;105882;1257;72571;-47
2023/12/19 05:14:16;;;;;;;77.00;25.60;;;;;;;-147.86;100.00;46092.41;105953;1257;61990;-48
2023/12/19 05:16:43;;;;;;;66.70;26.50;;;;;;;-147.86;100.00;46091.62;105879;1255;60521;-49
2023/12/19 05:19:10;;;;;;;65.90;24.60;;;;;;;-147.86;100.00;46093.19;105843;1254;73795;-50
2023/12/19 05:21:38;;;;;;;60.00;22.80;;;;;;;-147.86;100.00;46091.23;105855;1254;64622;-50
2023/12/19 05:24:05;;;;;;;66.60;24.30;;;;;;;-147.86;100.00;46090.44;105810;1254;72581;-48
2023/12/19 05:26:32;;;;;;;63.60;23.30;;;;;;;-147.86;100.00;46090.83;105876;1258;60367;-48
2023/12/19 05:28:59;;;;;;;65.30;23.30;;;;;;;-147.86;100.00;46093.19;105849;1254;60361;-53
2023/12/19 05:31:26;;;;;;;59.70;22.60;;;;;;;-147.86;100.00;46092.40;105796;1259;73930;-51
2023/12/19 05:33:54;;;;;;;60.70;22.40;;;;;;;-147.86;100.00;46089.27;105866;1257;64779;-48
2023/12/19 05:36:22;;;;;;;52.70;21.30;;;;;;;-147.86;100.00;46092.01;105847;1254;72540;-55
2023/12/19 05:38:48;;;;;;;50.40;20.70;;;;;;;-147.86;100.00;46091.62;105648;1254;61918;-49
2023/12/19 05:41:16;;;;;;;42.10;19.40;;;;;;;-147.86;100.00;46091.62;105880;1254;60465;-47
2023/12/19 05:43:44;;;;;;;45.00;20.00;;;;;;;-147.86;100.00;46088.09;105914;1254;74006;-51
2023/12/19 05:46:13;;;;;;;47.20;19.40;;;;;;;-147.86;100.00;46088.87;105862;1257;64923;-51
2023/12/19 05:48:40;;;;;;;48.10;19.40;;;;;;;-147.86;100.00;46088.88;105900;1254;71397;-51
2023/12/19 05:51:07;;;;;;;52.70;21.10;;;;;;;-147.86;100.00;46091.23;105838;1258;61850;-47
2023/12/19 05:53:37;;;;;;;46.60;19.60;;;;;;;-147.86;100.00;46090.45;105802;1254;60597;-48
2023/12/19 05:56:05;;;;;;;44.00;19.20;;;;;;;-147.86;100.00;46090.84;105841;1257;72229;-47
2023/12/19 05:58:33;;;;;;;45.80;19.90;;;;;;;-147.86;100.00;46092.01;105830;1254;64656;-47
2023/12/19 06:01:00;;;;;;;44.70;20.70;;;;;;;-147.86;100.00;46091.62;105817;1254;71095;-50
2023/12/19 06:03:27;;;;;;;50.00;20.50;;;;;;;-147.86;100.00;46091.62;105857;1254;61961;-48
2023/12/19 06:05:54;;;;;;;47.40;19.50;;;;;;;-147.86;100.00;46090.83;105820;1254;60415;-46
2023/12/19 06:08:22;;;;;;;43.20;18.90;;;;;;;-147.86;100.00;46090.05;105790;1257;72707;-48
2023/12/19 06:10:51;;;;;;;44.70;18.70;;;;;;;-147.86;100.00;46088.09;105854;1258;64011;-49
2023/12/19 06:13:18;;;;;;;39.80;17.70;;;;;;;-147.86;100.00;46090.83;105834;1258;72635;-49
2023/12/19 06:15:45;;;;;;;38.80;18.10;;;;;;;-147.86;100.00;46091.23;105813;1257;60428;-51
2023/12/19 06:18:12;;;;;;;49.40;18.10;;;;;;;-147.86;100.00;46090.05;105917;1254;60537;-49
2023/12/19 06:20:40;;;;;;;37.90;17.20;;;;;;;-147.86;100.00;46088.87;105840;1254;73868;-50
2023/12/19 06:23:07;;;;;;;41.00;18.30;;;;;;;-147.86;100.00;46090.44;105849;1259;64754;-52
2023/12/19 06:25:34;;;;;;;31.90;16.30;;;;;;;-147.86;100.00;46092.40;105833;1254;72707;-49
2023/12/19 06:28:01;;;;;;;35.20;16.60;;;;;;;-147.86;100.00;46092.79;105840;1257;61824;-52
2023/12/19 06:30:28;;;;;;;37.00;17.40;;;;;;;-147.86;100.00;46091.23;105865;1254;60345;-48
2023/12/19 06:33:01;;;;;;;38.10;17.10;;;;;;;-147.86;100.00;46089.27;105852;1254;72643;-53
2023/12/19 06:35:31;;;;;;;33.20;16.40;;;;;;;-147.86;100.00;46087.70;105877;1257;65365;-49
2023/12/19 06:37:58;;;;;;;37.20;16.70;;;;;;;-147.86;100.00;46088.88;105808;1259;72837;-49
2023/12/19 06:40:25;;;;;;;34.80;16.30;;;;;;;-147.86;100.00;46090.05;105885;1259;61964;-50
2023/12/19 06:42:52;;;;;;;33.60;15.80;;;;;;;-147.86;100.00;46091.23;105872;1254;60405;-51
2023/12/19 06:45:19;;;;;;;30.50;15.70;;;;;;;-147.86;100.00;46089.66;105814;1256;73684;-53
2023/12/19 06:47:46;;;;;;;30.00;15.40;;;;;;;-147.86;100.00;46090.83;105824;1257;63864;-52
2023/12/19 06:50:13;;;;;;;30.50;16.40;;;;;;;-147.86;100.00;46088.88;105862;1260;72589;-46
2023/12/19 06:52:40;;;;;;;34.60;16.40;;;;;;;-147.86;100.00;46090.83;105865;1257;60417;-54
2023/12/19 06:55:11;;;;;;;33.60;16.40;;;;;;;-147.86;100.00;46091.61;105863;1254;60485;-54
2023/12/19 06:57:38;;;;;;;29.00;15.70;;;;;;;-147.86;100.00;46092.79;105852;1259;73846;-51
2023/12/19 07:00:06;;;;;;;26.60;14.80;;;;;;;-147.86;100.00;46093.97;105811;1254;64786;-46
2023/12/19 07:02:35;;;;;;;27.70;15.60;;;;;;;-147.86;100.00;46091.23;105868;1255;72515;-49
2023/12/19 07:05:03;;;;;;;24.10;13.70;;;;;;;-147.86;100.00;46093.58;105891;1254;60540;-50
2023/12/19 07:07:31;;;;;;;26.40;14.70;;;;;;;-147.86;100.00;46092.79;105850;1255;60536;-51
2023/12/19 07:09:58;;;;;;;27.20;14.70;;;;;;;-147.86;100.00;46091.62;105820;1255;73828;-47
2023/12/19 07:12:25;;;;;;;23.50;14.00;;;;;;;-147.86;100.00;46090.44;105897;1254;64640;-50
2023/12/19 07:14:52;;;;;;;26.20;14.30;;;;;;;-147.86;100.00;46092.01;105861;1258;72626;-52
2023/12/19 07:17:19;;;;;;;20.40;13.20;;;;;;;-147.86;100.00;46088.88;105828;1257;61805;-53
2023/12/19 07:19:47;;;;;;;23.60;14.30;;;;;;;-147.86;100.00;46093.97;105858;1254;60542;-49
2023/12/19 07:22:14;;;;;;;24.50;13.60;;;;;;;-147.86;100.00;46094.36;105832;1255;72414;-53
2023/12/19 07:24:41;;;;;;;26.80;13.90;;;;;;;-147.86;100.00;46091.23;105958;1259;64687;-49
2023/12/19 07:27:08;;;;;;;27.30;13.10;;;;;;;-147.86;100.00;46092.79;105817;1256;72601;-49
2023/12/19 07:29:39;;;;;;;23.10;13.80;;;;;;;-147.86;100.00;46092.01;105660;1259;60749;-52
2023/12/19 07:32:06;;;;;;;19.80;13.20;;;;;;;-147.86;100.00;46092.79;105863;1259;60329;-51
2023/12/19 07:34:34;;;;;;;20.30;13.10;;;;;;;-147.86;100.00;46092.40;105873;1256;73812;-49
2023/12/19 07:37:02;;;;;;;18.10;13.00;;;;;;;-147.86;100.00;46093.18;105855;1257;64727;-52
2023/12/19 07:39:29;;;;;;;22.60;13.70;;;;;;;-147.86;100.00;46091.61;105840;1257;71609;-47
2023/12/19 07:41:57;;;;;;;21.60;13.90;;;;;;;-147.86;100.00;46091.62;105854;1257;61784;-51
2023/12/19 07:44:23;;;;;;;20.60;13.30;;;;;;;-147.86;100.00;46094.36;105858;1254;60479;-49
2023/12/19 07:46:51;;;;;;;20.20;12.40;;;;;;;-147.86;100.00;46092.01;105906;1254;74644;-53
2023/12/19 07:49:18;;;;;;;17.40;12.40;;;;;;;-147.86;100.00;46090.05;105861;1257;64449;-51
2023/12/19 07:51:45;;;;;;;19.90;12.40;;;;;;;-147.86;100.00;46092.01;105901;1257;72896;-50
2023/12/19 07:54:12;;;;;;;20.40;13.00;;;;;;;-147.86;100.00;46092.40;105829;1260;61867;-49
2023/12/19 07:56:42;;;;;;;20.40;12.40;;;;;;;-147.86;100.00;46090.05;105843;1254;60511;-49
2023/12/19 07:59:10;;;;;;;15.20;10.90;;;;;;;-147.86;100.00;46090.83;105890;1255;73828;-50
2023/12/19 08:01:38;;;;;;;16.30;10.20;;;;;;;-147.86;100.00;46092.40;105844;1258;64550;-49
2023/12/19 08:04:06;;;;;;;18.20;10.50;;;;;;;-147.86;100.00;46090.83;105858;1260;71560;-46
2023/12/19 08:06:33;;;;;;;13.50;9.80;;;;;;;-147.86;100.00;46092.40;105855;1259;60367;-55
2023/12/19 08:09:00;;;;;;;14.30;9.60;;;;;;;-147.86;100.00;46091.62;105911;1254;60805;-51
2023/12/19 08:11:27;;;;;;;11.40;8.30;;;;;;;-147.86;100.00;46093.97;105727;1258;73863;-52
2023/12/19 08:13:54;;;;;;;9.80;7.50;;;;;;;-147.86;100.00;46089.65;105543;1256;64522;-52
2023/12/19 08:16:21;;;;;;;10.00;7.20;;;;;;;-147.86;100.00;46094.36;105613;1259;72368;-50
2023/12/19 08:18:50;;;;;;;9.40;6.80;;;;;;;-147.86;100.00;46090.83;105810;1260;60540;-50
2023/12/19 08:21:19;;;;;;;8.90;6.90;;;;;;;-147.86;100.00;46090.05;105821;1254;60453;-48
2023/12/19 08:23:48;;;;;;;7.80;5.70;;;;;;;-147.86;100.00;46090.83;106026;1258;73717;-52
2023/12/19 08:26:15;;;;;;;7.90;6.00;;;;;;;-147.86;100.00;46091.62;105856;1259;65088;-55
2023/12/19 08:28:42;;;;;;;6.60;5.60;;;;;;;-147.86;100.00;46091.23;105727;1254;72786;-53
2023/12/19 08:31:09;;;;;;;6.10;5.40;;;;;;;-147.86;100.00;46092.01;105836;1257;62020;-50
2023/12/19 08:33:41;;;;;;;9.10;6.00;;;;;;;-147.86;100.00;46093.18;105872;1254;61941;-52
2023/12/19 08:36:08;;;;;;;6.60;5.50;;;;;;;-147.86;100.00;46091.62;105845;1259;73816;-48
2023/12/19 08:38:56;;;;;;;7.10;6.10;;;;;;;-147.86;100.00;46090.45;105835;1254;64654;-52
2023/12/19 08:41:23;;;;;;;6.30;5.20;;;;;;;-147.86;100.00;46092.79;105849;1259;72390;-52
2023/12/19 08:43:51;;;;;;;8.80;6.10;;;;;;;-147.86;100.00;46093.18;105650;1258;61909;-48
2023/12/19 08:46:19;;;;;;;7.20;5.20;;;;;;;-147.86;100.00;46093.18;105870;1255;60460;-49
2023/12/19 08:48:49;;;;;;;9.10;6.60;;;;;;;-147.86;100.00;46092.01;105848;1258;73887;-49
2023/12/19 08:51:20;;;;;;;8.10;6.90;;;;;;;-147.86;100.00;46092.01;105866;1257;66253;-49
2023/12/19 08:53:47;;;;;;;9.70;7.30;;;;;;;-147.86;100.00;46092.01;105817;1256;73353;-48
2023/12/19 08:56:15;;;;;;;8.40;6.50;;;;;;;-147.86;100.00;46091.61;105905;1259;61810;-52
2023/12/19 08:58:44;;;;;;;8.30;6.40;;;;;;;-147.86;100.00;46090.83;105904;1258;61789;-48
2023/12/19 09:01:12;;;;;;;7.50;5.60;;;;;;;-147.86;100.00;46092.79;105861;1257;73226;-51
2023/12/19 09:03:39;;;;;;;10.30;6.80;;;;;;;-147.86;100.00;46090.83;105908;1259;64711;-49
2023/12/19 09:06:07;;;;;;;10.20;6.40;;;;;;;-147.86;100.00;46092.79;105881;1254;72501;-50
2023/12/19 09:08:34;;;;;;;11.40;7.60;;;;;;;-147.86;100.00;46090.83;105839;1255;61290;-48
2023/12/19 09:11:01;;;;;;;8.60;7.10;;;;;;;-147.86;100.00;46092.79;105834;1257;60453;-50
2023/12/19 09:13:29;;;;;;;9.50;7.10;;;;;;;-147.86;100.00;46092.01;105941;1257;75325;-51
2023/12/19 09:16:00;;;;;;;14.20;8.10;;;;;;;-147.86;100.00;46094.75;105866;1258;64710;-49
2023/12/19 09:18:27;;;;;;;11.10;8.20;;;;;;;-147.86;100.00;46091.62;105864;1256;72691;-50
2023/12/19 09:20:55;;;;;;;15.10;8.80;;;;;;;-147.86;100.00;46093.97;105878;1259;62005;-52
2023/12/19 09:23:22;;;;;;;16.60;9.80;;;;;;;-147.86;100.00;46095.14;105821;1254;60682;-52
2023/12/19 09:25:48;;;;;;;15.50;9.50;;;;;;;-147.86;100.00;46092.79;105812;1255;72349;-49
2023/12/19 09:28:16;;;;;;;16.50;9.50;;;;;;;-147.86;100.00;46093.19;105837;1256;64713;-49
2023/12/19 09:30:43;;;;;;;16.50;9.20;;;;;;;-147.86;100.00;46094.36;105861;1258;72606;-51
2023/12/19 09:33:10;;;;;;;13.00;9.60;;;;;;;-147.86;100.00;46091.62;105804;1259;61658;-48
2023/12/19 09:35:37;;;;;;;14.30;9.70;;;;;;;-147.86;100.00;46092.01;105874;1254;60530;-49
2023/12/19 09:38:04;;;;;;;13.80;9.70;;;;;;;-147.86;100.00;46093.19;105899;1255;73840;-49
2023/12/19 09:40:32;;;;;;;14.60;9.40;;;;;;;-147.86;100.00;46092.40;105881;1266;66203;-53
2023/12/19 09:42:59;;;;;;;13.50;9.60;;;;;;;-147.86;100.00;46093.97;105812;1257;74025;-48
2023/12/19 09:45:26;;;;;;;14.90;8.80;;;;;;;-147.86;100.00;46093.57;105684;1259;63760;-54
2023/12/19 09:48:00;;;;;;;13.20;9.40;;;;;;;-147.86;100.00;46092.40;105824;1255;62169;-48
2023/12/19 09:50:28;;;;;;;11.90;8.30;;;;;;;-147.86;100.00;46093.19;105964;1266;72521;-49
2023/12/19 09:52:59;;;;;;;14.10;9.10;;;;;;;-147.86;100.00;46090.83;105835;1260;64720;-50
2023/12/19 09:55:30;;;;;;;12.50;8.40;;;;;;;-147.86;100.00;46093.58;105868;1256;75048;-49
2023/12/19 09:57:58;;;;;;;13.10;8.20;;;;;;;-147.86;100.00;46095.54;105841;1256;63462;-48
2023/12/19 10:00:25;;;;;;;10.80;8.20;;;;;;;-147.86;100.00;46092.01;105675;1259;60406;-49
2023/12/19 10:02:53;;;;;;;11.00;8.00;;;;;;;-147.86;100.00;46093.57;105915;1256;73881;-51
2023/12/19 10:05:20;;;;;;;12.30;7.50;;;;;;;-147.86;100.00;46095.54;105811;1256;64647;-53
2023/12/19 10:07:47;;;;;;;13.10;8.40;;;;;;;-147.86;100.00;46094.36;105924;1254;74038;-49
2023/12/19 10:10:15;;;;;;;12.60;7.70;;;;;;;-147.86;100.00;46095.54;105632;1259;62093;-48
2023/12/19 10:12:49;;;;;;;9.70;7.20;;;;;;;-147.86;100.00;46093.57;105885;1254;60447;-51
2023/12/19 10:15:25;;;;;;;9.10;6.70;;;;;;;-147.86;100.00;46095.93;105808;1260;75436;-53
2023/12/19 10:18:10;;;;;;;6.30;5.30;;;;;;;-147.86;100.00;46095.14;105888;1257;64497;-51
2023/12/19 10:20:38;;;;;;;7.10;4.80;;;;;;;-147.86;100.00;46096.32;105865;1254;72630;-51
2023/12/19 10:23:05;;;;;;;6.90;5.00;;;;;;;-147.86;100.00;46095.93;105675;1259;62330;-51
2023/12/19 10:25:33;;;;;;;7.80;5.30;;;;;;;-147.86;100.00;46096.71;105800;1254;61880;-46
2023/12/19 10:28:13;;;;;;;5.80;4.70;;;;;;;-147.86;100.00;46094.36;105849;1257;75386;-50
2023/12/19 10:30:42;;;;;;;5.70;4.30;;;;;;;-147.86;100.00;46096.32;105847;1254;65717;-53
2023/12/19 10:33:10;;;;;;;5.20;3.90;;;;;;;-147.86;100.00;46096.32;105766;1255;74376;-46
2023/12/19 10:35:38;;;;;;;5.80;4.70;;;;;;;-147.86;100.00;46097.89;105817;1257;63680;-50
2023/12/19 10:38:08;;;;;;;5.20;4.20;;;;;;;-147.86;100.00;46097.89;105897;1257;61953;-50
2023/12/19 10:40:37;;;;;;;5.90;4.10;;;;;;;-147.86;100.00;46097.11;105837;1259;75523;-52
2023/12/19 10:43:05;;;;;;;7.70;5.40;;;;;;;-147.86;100.00;46098.68;105816;1258;66234;-52
2023/12/19 10:45:33;;;;;;;4.70;4.30;;;;;;;-147.86;100.00;46100.24;105872;1259;74261;-52
2023/12/19 10:48:01;;;;;;;5.10;4.50;;;;;;;-147.86;100.00;46099.06;105705;1260;63383;-52
2023/12/19 10:50:29;;;;;;;5.20;4.50;;;;;;;-147.86;100.00;46100.24;105853;1254;61864;-48
2023/12/19 10:53:01;;;;;;;5.90;4.90;;;;;;;-147.86;100.00;46100.63;105880;1257;74353;-51